• Join FlightAware (Why Join?)
  • Login
  • US Flag 
11:14PM EDT


 

Airport Tracker/Info


-or-


 

Live Flight TrackerFlight Track Log ✈ N845AE ✈ 03-Jun-2013 ✈ KGRI - KDFW

Flight Track Log - Related Links

Times and Time Zones

All times are in EDT time to prevent confusion due to time zone crossing. See the N845AE flight status page for this flight to view local times or setup timezone preferences in your user account.

Time Position Orientation Groundspeed Altitude Reporting Facility
EDT Latitude Longitude Course Direction KTS MPH feet Rate Location/Type
03:46PM 40.9300 -98.3033 166° South 166 191 3,600  Level Kansas City Center
03:47PM 40.8803 -98.2786 159° South 182 209 5,700 2,220 Climbing Kansas City Center
03:48PM 40.8142 -98.2569 166° South 217 250 8,200 2,220 Climbing Kansas City Center
03:49PM 40.7372 -98.2311 166° South 235 270 10,700 2,040 Climbing Minneapolis Center
03:50PM 40.4941 -98.1409 163° South  Level FlightAware Approximate
03:50PM 40.6667 -98.2061 165° South 251 289 12,700  Level Minneapolis Center
03:51PM 40.4002 -98.1056 166° South  Level FlightAware Approximate
03:51PM 40.5933 -98.1808 165° South 267 307 14,700  Level Minneapolis Center
03:52PM 40.5139 -98.1544 166° South 287 330 15,400 540 Climbing Minneapolis Center
03:53PM 40.4181 -98.1203 165° South 341 392 15,900 480 Climbing Minneapolis Center
03:54PM 40.3153 -98.0864 166° South 369 425 16,400 1,140 Climbing Minneapolis Center
03:55PM 40.1897 -98.0439 166° South 385 443 18,300 1,680 Climbing Minneapolis Center
03:56PM 40.0861 -98.0097 166° South 385 443 19,900 1,500 Climbing Minneapolis Center
03:57PM 39.9808 -97.9728 165° South 388 447 21,400 1,500 Climbing Minneapolis Center
03:58PM 39.8753 -97.9389 166° South 389 448 23,000 1,500 Climbing Minneapolis Center
03:59PM 39.7697 -97.9025 165° South 392 451 24,500 1,500 Climbing Minneapolis Center
04:00PM 39.6633 -97.8678 166° South 392 451 26,100 1,560 Climbing Minneapolis Center
04:01PM 39.5597 -97.8300 164° South 388 447 27,600 1,560 Climbing Kansas City Center
04:02PM 39.4556 -97.7958 166° South 386 444 29,200 1,500 Climbing Kansas City Center
04:03PM 39.3522 -97.7631 166° South 381 438 30,700 1,260 Climbing Kansas City Center
04:04PM 39.2486 -97.7272 165° South 384 442 31,900 1,080 Climbing Kansas City Center
04:05PM 39.1361 -97.6911 166° South 396 456 33,000 1,080 Climbing Kansas City Center
04:06PM 39.0133 -97.6508 166° South 406 467 34,200 960 Climbing Kansas City Center
04:07PM 38.9053 -97.6194 167° South 413 475 35,000 360 Climbing Kansas City Center
04:08PM 38.7725 -97.6156 179° South 427 491 35,000  Level Kansas City Center
04:10PM 38.6689 -97.6142 179° South 433 498 35,000  Level Kansas City Center
04:11PM 38.5247 -97.6097 179° South 432 497 35,000  Level Kansas City Center
04:12PM 38.4011 -97.6061 179° South 440 506 35,000  Level Kansas City Center
04:13PM 38.2758 -97.6019 179° South 446 513 35,000  Level Kansas City Center
04:14PM 38.1544 -97.5972 178° South 450 518 35,000  Level Kansas City Center
04:15PM 38.0306 -97.5936 179° South 445 512 35,000  Level Kansas City Center
04:16PM 37.8936 -97.5892 179° South 443 510 35,000  Level Kansas City Center
04:17PM 37.7700 -97.5828 178° South 444 511 35,000  Level Kansas City Center
04:18PM 37.6500 -97.5831 180° South 434 499 35,000  Level Kansas City Center
04:19PM 37.5106 -97.5867 181° South 426 490 35,000  Level Kansas City Center
04:20PM 37.3919 -97.5875 180° South 425 489 35,000  Level Kansas City Center
04:21PM 37.2728 -97.5897 181° South 426 490 35,000  Level Kansas City Center
04:22PM 37.1564 -97.5906 180° South 421 484 35,000  Level Kansas City Center
04:23PM 37.0417 -97.5928 181° South 414 476 35,000  Level Kansas City Center
04:24PM 36.9283 -97.5928 180° South 408 470 35,000  Level Kansas City Center
04:25PM 36.8156 -97.5942 181° South 404 465 35,000  Level Kansas City Center
04:26PM 36.6856 -97.5967 181° South 393 452 35,000  Level Kansas City Center
04:27PM 36.5722 -97.5967 180° South 391 450 35,000  Level Kansas City Center
04:28PM 36.4644 -97.5994 181° South 384 442 35,000  Level Kansas City Center
04:29PM 36.3575 -97.6011 181° South 383 441 35,000  Level Kansas City Center
04:30PM 36.2483 -97.6008 180° South 387 445 35,000  Level Kansas City Center
04:31PM 36.1353 -97.6011 180° South 397 457 35,000  Level Kansas City Center
04:32PM 36.0200 -97.6028 181° South 406 467 35,000 -420 Level Kansas City Center
04:33PM 35.8800 -97.6050 181° South 417 480 34,200 -540 Descending Kansas City Center
04:34PM 35.7622 -97.6075 181° South 423 487 34,000 -120 Descending Kansas City Center
04:35PM 35.6461 -97.6086 180° South 421 484 34,000  Level Kansas City Center
04:36PM 35.5811 -97.6128 183° South 427 491 34,000  Level Fort Worth Center
04:37PM 35.4664 -97.6175 182° South 417 480 34,000  Level Fort Worth Center
04:38PM 35.3519 -97.6172 180° South 417 480 34,000  Level Fort Worth Center
04:39PM 35.2372 -97.5992 173° South 417 480 34,000 -660 Level Fort Worth Center
04:40PM 35.1286 -97.5836 173° South 417 480 32,700 -1,380 Descending Fort Worth Center
04:41PM 35.0161 -97.5656 173° South 412 474 31,300 -1,500 Descending Fort Worth Center
04:42PM 34.9014 -97.5478 173° South 412 474 29,800 -1,500 Descending Fort Worth Center
04:43PM 34.7867 -97.5325 174° South 412 474 28,400 -1,500 Descending Fort Worth Center
04:45PM 34.5769 -97.5017 173° South 440 506 25,800 -1,500 Descending Kansas City Center
04:45PM 34.5425 -97.4992 177° South 436 502 25,500 -1,380 Descending Fort Worth Center
04:46PM 34.4194 -97.4814 173° South 447 514 24,100 -780 Descending Fort Worth Center
04:47PM 34.2986 -97.4914 184° South 441 507 24,000 -420 Descending Fort Worth Center
04:48PM 34.1836 -97.5139 189° South 435 501 23,300 -1,500 Descending Fort Worth Center
04:49PM 34.0522 -97.5364 188° South 430 495 21,000 -2,100 Descending Fort Worth Center
04:50PM 33.9375 -97.5536 187° South 430 495 19,100 -1,920 Descending Fort Worth Center
04:51PM 33.8353 -97.5711 188° South 406 467 17,200 -1,920 Descending Fort Worth Center
04:52PM 33.7494 -97.5858 188° South 370 426 15,300 -1,920 Descending Fort Worth Center
04:53PM 33.6514 -97.6031 188° South 365 420 13,400 -2,100 Descending Fort Worth Center
04:54PM 33.5408 -97.6178 186° South 358 412 11,200 -2,100 Descending Fort Worth Center
04:55PM 33.4489 -97.6325 188° South 352 405 9,300 -1,260 Descending Fort Worth Center
04:56PM 33.3697 -97.6225 174° South 326 375 8,700 -1,320 Descending Fort Worth Center
04:57PM 33.3133 -97.5625 138° Southeast 269 310 6,700 -1,800 Descending Fort Worth Center
04:58PM 33.2633 -97.5003 134° Southeast 264 304 5,100 -840 Descending Fort Worth Center
04:59PM 33.2342 -97.4283 116° Southeast 244 281 5,100 -60 Level Fort Worth Center
05:00PM 33.2000 -97.3500 118° Southeast 260 299 5,000 -120 Descending Dallas / Fort Worth TRACON
05:01PM 33.1500 -97.2667 126° Southeast 272 313 4,900 -420 Descending Dallas / Fort Worth TRACON
05:02PM 33.1167 -97.2000 121° Southeast 260 299 4,300 -720 Descending Dallas / Fort Worth TRACON